Latest Weather Observations for Gove Airport

IDD60801

Issued at 1:01 pm CST Monday 26 June 2017 (issued every 30 minutes, with the page automatically refreshed every 10 minutes)

About weather observations | Map of weather stations | Latest weather observations for NT | Other Formats
Station Details ID: 014508 Name: GOVE AIRPORT Lat: -12.27 Lon: 136.82 Height: 51.6 m
Data from the previous 72 hours. | See also: Recent months at Gove Airport
Date/Time
CST
Temp
°C
App
Temp
°C
Dew
Point
°C
Rel
Hum
%
Delta-T
°C
Wind Press
QNH
hPa
Press
MSL
hPa
Rain since
9am
mm
Dir  Spd
km/h
Gust
km/h
Spd
kts
Gust
kts
26/01:00pm 28.7 28.8 20.4 60 5.5 ESE 20 28 11 15 1013.9 1013.6 0.0
26/12:30pm 28.2 28.6 20.6 63 5.0 ESE 19 28 10 15 1014.1 1013.8 0.0
26/12:00pm 28.8 28.3 17.8 51 7.0 SE 17 24 9 13 1014.6 1014.3 0.0
26/11:30am 28.6 28.9 19.7 58 5.8 SE 17 28 9 15 1014.8 1014.5 0.0
26/11:00am 27.8 28.5 18.8 58 5.8 SSE 13 19 7 10 1015.0 1014.7 0.0
26/10:30am 27.7 28.1 19.0 59 5.6 ESE 15 22 8 12 1014.9 1014.6 0.0
26/10:00am 27.3 27.2 18.7 59 5.5 SE 17 28 9 15 1015.1 1014.8 0.0
26/09:30am 26.9 26.3 18.4 59 5.4 ESE 19 24 10 13 1015.2 1014.9 0.0
26/09:00am 26.1 25.5 18.4 62 4.9 ESE 19 26 10 14 1015.2 1014.9 0.0
26/08:30am 25.3 26.4 18.9 67 4.1 SE 11 17 6 9 1014.9 1014.6 0.0
26/08:00am 23.2 25.4 19.6 80 2.3 SSE 7 11 4 6 1014.4 1014.1 0.0
26/07:30am 20.5 22.6 19.4 93 0.7 SSE 7 7 4 4 1014.2 1013.9 0.0
26/07:00am 18.4 19.8 17.7 96 0.4 SSE 7 9 4 5 1014.0 1013.7 0.0
26/06:30am 18.0 19.8 17.3 96 0.4 SSE 4 6 2 3 1013.9 1013.6 0.0
26/06:00am 18.1 20.4 17.6 97 0.3 SSE 2 7 1 4 1013.5 1013.2 0.0
26/05:30am 18.3 20.1 17.5 95 0.5 SSE 4 7 2 4 1013.3 1013.0 0.0
26/05:00am 18.4 19.8 17.7 96 0.4 SSE 7 7 4 4 1013.2 1012.9 0.0
26/04:30am 18.7 21.5 17.9 95 0.5 CALM 0 0 0 0 1013.1 1012.8 0.0
26/04:00am 19.2 22.2 18.4 95 0.5 CALM 0 0 0 0 1013.1 1012.8 0.0
26/03:30am 19.7 21.1 18.6 93 0.7 S 9 15 5 8 1013.0 1012.7 0.0
26/03:00am 19.4 21.1 18.1 92 0.8 SSE 6 9 3 5 1013.3 1013.0 0.0
26/02:30am 18.8 20.2 17.7 93 0.7 SSE 7 9 4 5 1013.4 1013.1 0.0
26/02:00am 19.5 21.1 18.2 92 0.8 S 7 9 4 5 1013.6 1013.3 0.0
26/01:30am 19.7 21.5 18.4 92 0.8 S 6 9 3 5 1013.8 1013.5 0.0
26/01:00am 20.4 22.1 18.5 89 1.2 SSE 7 9 4 5 1013.9 1013.6 0.0
26/12:30am 20.7 22.0 18.5 87 1.4 SSE 9 11 5 6 1014.2 1013.9 0.0
26/12:00am 20.8 22.2 18.6 87 1.4 SSE 9 11 5 6 1014.3 1014.0 0.0
 
Date/Time
CST
Temp
°C
App
Temp
°C
Dew
Point
°C
Rel
Hum
%
Delta-T
°C
Wind Press
QNH
hPa
Press
MSL
hPa
Rain since
9am
mm
Dir  Spd
km/h
Gust
km/h
Spd
kts
Gust
kts
25/11:30pm 21.2 22.5 18.5 84 1.7 SSE 9 11 5 6 1014.2 1013.9 0.0
25/11:00pm 21.4 22.7 18.5 83 1.8 SSE 9 9 5 5 1014.4 1014.1 0.0
25/10:30pm 21.8 23.5 18.5 81 2.1 SE 7 9 4 5 1014.3 1014.0 0.0
25/10:00pm 22.1 23.3 18.3 79 2.4 SE 9 9 5 5 1014.3 1014.0 0.0
25/09:30pm 22.0 23.0 17.8 77 2.6 SE 9 11 5 6 1014.1 1013.8 0.0
25/09:00pm 22.6 23.0 17.3 72 3.3 SSE 11 13 6 7 1013.9 1013.6 0.0
25/08:30pm 22.7 23.5 17.4 72 3.3 SSE 9 13 5 7 1013.6 1013.3 0.0
25/08:00pm 22.6 23.5 17.6 73 3.1 SSE 9 11 5 6 1013.4 1013.1 0.0
25/07:30pm 22.8 23.8 17.7 73 3.2 SSE 9 11 5 6 1013.2 1012.9 0.0
25/07:00pm 23.3 24.5 18.2 73 3.2 SE 9 11 5 6 1012.8 1012.5 0.0
25/06:30pm 24.1 25.0 18.4 70 3.6 SE 11 13 6 7 1012.4 1012.1 0.0
25/06:00pm 25.3 25.8 18.4 65 4.4 SE 13 19 7 10 1012.2 1011.9 0.0
25/05:30pm 25.9 25.7 18.5 63 4.7 ESE 17 20 9 11 1012.2 1011.9 0.0
25/05:00pm 26.8 26.8 19.0 62 5.0 SE 17 30 9 16 1011.9 1011.6 0.0
25/04:30pm 27.3 28.7 20.3 65 4.6 SSE 13 20 7 11 1011.8 1011.5 0.0
25/04:00pm 27.7 28.0 19.7 61 5.2 SE 17 24 9 13 1011.7 1011.4 0.0
25/03:30pm 27.3 27.6 19.6 62 5.0 SE 17 26 9 14 1011.6 1011.3 0.0
25/03:00pm 28.7 28.4 19.5 57 6.0 ESE 20 28 11 15 1011.7 1011.4 0.0
25/02:30pm 27.6 26.0 18.4 57 5.9 SE 24 30 13 16 1011.9 1011.6 0.0
25/02:00pm 27.7 26.8 18.1 56 6.1 SE 20 28 11 15 1012.1 1011.8 0.0
25/01:30pm 29.3 27.6 16.3 45 8.1 ESE 20 32 11 17 1012.3 1012.0 0.0
25/01:00pm 29.5 26.8 13.6 37 9.5 SE 20 28 11 15 1012.6 1012.3 0.0
25/12:30pm 29.0 27.1 15.1 42 8.5 ESE 19 30 10 16 1013.0 1012.7 0.0
25/12:00pm 27.8 26.6 17.5 53 6.5 ESE 20 30 11 16 1013.3 1013.0 0.0
25/11:30am 28.5 27.3 17.0 49 7.2 SE 19 28 10 15 1013.6 1013.3 0.0
25/11:00am 27.9 26.1 16.1 48 7.3 ESE 20 30 11 16 1013.9 1013.6 0.0
25/10:30am 27.8 25.8 17.5 53 6.5 SE 24 37 13 20 1014.2 1013.9 0.0
25/10:00am 26.9 24.9 18.3 59 5.5 ESE 26 33 14 18 1014.2 1013.9 0.0
25/09:30am 26.4 25.0 18.0 60 5.3 ESE 22 32 12 17 1014.0 1013.7 0.0
25/09:00am 26.3 24.9 17.0 56 5.8 ESE 20 26 11 14 1013.9 1013.6 0.0
25/08:30am 25.3 25.2 16.9 59 5.2 ESE 13 19 7 10 1013.7 1013.4 0.0
25/08:00am 23.2 24.1 16.7 67 4.0 SE 7 13 4 7 1013.4 1013.1 0.0
25/07:30am 20.5 21.1 16.9 80 2.2 SE 9 9 5 5 1013.1 1012.8 0.0
25/07:00am 17.4 18.1 15.7 90 1.0 SSE 6 7 3 4 1012.8 1012.5 0.0
25/06:30am 17.6 18.5 16.1 91 0.9 SE 6 6 3 3 1012.7 1012.4 0.0
25/06:00am 17.7 18.6 16.2 91 0.9 SE 6 6 3 3 1012.3 1012.0 0.0
25/05:30am 18.1 19.1 16.3 89 1.1 SE 6 7 3 4 1012.0 1011.7 0.0
25/05:00am 18.9 19.9 16.4 85 1.5 SE 6 7 3 4 1012.1 1011.8 0.0
25/04:30am 20.1 20.1 16.3 79 2.3 SSE 11 13 6 7 1012.0 1011.7 0.0
25/04:00am 19.8 20.4 16.7 82 1.9 SSE 9 13 5 7 1012.0 1011.7 0.0
25/03:30am 19.1 20.3 17.3 89 1.1 ESE 7 7 4 4 1012.3 1012.0 0.0
25/03:00am 19.7 21.0 17.6 88 1.3 SE 7 9 4 5 1012.3 1012.0 0.0
25/02:30am 20.5 21.9 17.7 84 1.7 SE 7 9 4 5 1012.7 1012.4 0.0
25/02:00am 21.1 22.2 17.9 82 2.0 SSE 9 9 5 5 1012.9 1012.6 0.0
25/01:30am 21.2 22.7 18.0 82 2.0 SE 7 9 4 5 1013.1 1012.8 0.0
25/01:00am 21.6 23.0 17.7 78 2.4 SE 7 9 4 5 1013.3 1013.0 0.0
25/12:30am 21.4 22.1 18.0 81 2.1 SE 11 13 6 7 1013.3 1013.0 0.0
25/12:00am 21.7 23.0 18.5 82 2.0 SE 9 11 5 6 1013.3 1013.0 0.0
 
Date/Time
CST
Temp
°C
App
Temp
°C
Dew
Point
°C
Rel
Hum
%
Delta-T
°C
Wind Press
QNH
hPa
Press
MSL
hPa
Rain since
9am
mm
Dir  Spd
km/h
Gust
km/h
Spd
kts
Gust
kts
24/11:30pm 21.6 22.9 18.4 82 2.0 SE 9 9 5 5 1013.4 1013.1 0.0
24/11:00pm 21.8 22.8 18.6 82 2.0 SE 11 13 6 7 1013.4 1013.1 0.0
24/10:30pm 22.4 23.9 18.8 80 2.3 SE 9 9 5 5 1013.5 1013.2 0.0
24/10:00pm 22.6 24.1 19.0 80 2.3 SE 9 13 5 7 1013.4 1013.1 0.0
24/09:30pm 23.1 24.4 19.2 79 2.5 SE 11 15 6 8 1013.1 1012.8 0.0
24/09:00pm 22.9 24.3 19.5 81 2.2 SE 11 13 6 7 1012.9 1012.6 0.0
24/08:30pm 22.8 24.6 19.5 81 2.1 SSE 9 11 5 6 1012.8 1012.5 0.0
24/08:00pm 23.1 24.4 19.3 79 2.4 SE 11 15 6 8 1012.5 1012.2 0.0
24/07:30pm 23.3 24.2 19.2 78 2.6 SE 13 15 7 8 1012.1 1011.8 0.0
24/07:00pm 23.7 25.0 19.3 76 2.8 SE 11 15 6 8 1011.9 1011.6 0.0
24/06:30pm 24.4 25.4 19.4 73 3.2 SE 13 17 7 9 1011.8 1011.5 0.0
24/06:00pm 24.9 26.1 19.1 70 3.7 SSE 11 15 6 8 1011.7 1011.4 0.0
24/05:30pm 25.2 26.8 19.1 69 3.9 SSE 9 15 5 8 1011.6 1011.3 0.0
24/05:00pm 26.8 26.4 18.1 59 5.5 SE 17 28 9 15 1011.2 1010.9 0.0
24/04:30pm 26.6 27.2 20.2 68 4.2 SSE 17 24 9 13 1011.1 1010.8 0.0
24/04:00pm 26.9 27.0 20.0 66 4.5 SSE 19 24 10 13 1011.0 1010.7 0.0
24/03:30pm 27.2 27.2 19.7 63 4.9 SSE 19 26 10 14 1010.9 1010.6 0.0
24/03:00pm 27.3 27.2 20.0 64 4.8 SSE 20 28 11 15 1011.0 1010.7 0.0
24/02:30pm 27.5 26.6 19.1 60 5.4 SE 22 32 12 17 1011.3 1011.0 0.0
24/02:00pm 27.7 27.4 19.6 61 5.3 SE 20 26 11 14 1011.6 1011.3 0.0
24/01:30pm 27.2 27.1 19.5 62 5.0 SSE 19 28 10 15 1012.1 1011.8 0.0
24/01:00pm 27.1 26.4 19.6 63 4.9 SE 22 35 12 19 1012.6 1012.3 0.0
24/12:30pm 27.4 27.1 19.6 62 5.1 SSE 20 30 11 16 1013.0 1012.7 0.0
24/12:00pm 28.9 28.7 19.7 57 6.0 SE 20 28 11 15 1013.2 1012.9 0.0
24/11:30am 28.1 27.6 19.1 58 5.8 SE 20 32 11 17 1013.5 1013.2 0.0
24/11:00am 27.2 26.4 19.3 62 5.1 SE 22 32 12 17 1013.9 1013.6 0.0
24/10:30am 27.2 26.9 19.5 62 5.0 ESE 20 30 11 16 1014.0 1013.7 0.0
24/10:00am 27.2 25.7 18.6 59 5.5 SE 24 33 13 18 1014.1 1013.8 0.0
24/09:30am 26.6 26.3 19.5 65 4.6 ESE 20 28 11 15 1014.1 1013.8 0.0
24/09:00am 26.6 25.4 19.3 64 4.7 SE 24 37 13 20 1013.9 1013.6 -
24/08:30am 26.1 26.4 19.6 67 4.2 SE 17 22 9 12 1013.8 1013.5 -
24/08:00am 25.0 26.5 19.7 72 3.4 SE 11 13 6 7 1013.4 1013.1 -
24/07:30am 22.7 24.5 19.6 82 2.0 SSE 9 13 5 7 1013.0 1012.7 -
24/07:00am 19.8 21.5 18.5 92 0.8 SSE 7 9 4 5 1012.8 1012.5 -
24/06:30am 19.7 21.5 18.3 92 0.9 SSE 6 7 3 4 1012.6 1012.3 -
24/06:00am 20.0 21.8 18.2 89 1.1 SSE 6 7 3 4 1012.4 1012.1 -
24/05:30am 19.9 22.4 18.1 89 1.1 SSE 2 6 1 3 1012.4 1012.1 -
24/05:00am 20.8 22.3 18.1 84 1.7 SSE 7 9 4 5 1012.2 1011.9 -
24/04:30am 21.3 22.4 17.9 81 2.1 SSE 9 11 5 6 1012.2 1011.9 -
24/04:00am 21.9 23.3 17.7 77 2.6 SSE 7 11 4 6 1012.4 1012.1 -
24/03:30am 21.4 22.2 17.3 77 2.5 SE 9 11 5 6 1012.5 1012.2 -
24/03:00am 21.8 22.2 17.3 75 2.8 SE 11 15 6 8 1012.6 1012.3 0.0
24/02:30am 21.7 22.3 17.7 78 2.5 SSE 11 15 6 8 1012.9 1012.6 -
24/02:00am 21.8 22.8 17.8 78 2.5 SSE 9 13 5 7 1013.1 1012.8 -
24/01:30am 21.8 22.9 18.1 79 2.3 SSE 9 11 5 6 1013.3 1013.0 -
24/01:00am 22.6 22.9 18.0 75 2.9 SE 13 17 7 9 1013.6 1013.3 -
24/12:30am 22.8 23.2 18.2 75 2.9 SE 13 17 7 9 1013.8 1013.5 -
24/12:00am 22.9 23.4 18.3 75 2.9 SE 13 17 7 9 1013.7 1013.4 -
 
Date/Time
CST
Temp
°C
App
Temp
°C
Dew
Point
°C
Rel
Hum
%
Delta-T
°C
Wind Press
QNH
hPa
Press
MSL
hPa
Rain since
9am
mm
Dir  Spd
km/h
Gust
km/h
Spd
kts
Gust
kts
23/11:30pm 23.3 23.3 18.0 72 3.3 SE 15 19 8 10 1013.8 1013.5 -
23/11:00pm 22.9 23.3 18.1 74 3.0 SE 13 15 7 8 1014.0 1013.7 -
23/10:30pm 23.6 23.1 17.8 70 3.6 SE 17 20 9 11 1014.1 1013.8 -
23/10:00pm 23.1 23.6 18.3 74 3.0 SE 13 15 7 8 1014.1 1013.8 -
23/09:30pm 23.1 23.7 18.7 76 2.8 SE 13 15 7 8 1014.2 1013.9 -
23/09:00pm 23.1 24.3 19.0 78 2.6 SE 11 13 6 7 1014.1 1013.8 0.0
23/08:30pm 23.5 24.8 19.3 77 2.7 SSE 11 13 6 7 1013.9 1013.6 -
23/08:00pm 23.8 24.8 19.4 76 2.8 SE 13 17 7 9 1013.7 1013.4 -
23/07:30pm 24.3 25.4 19.6 75 3.0 SE 13 19 7 10 1013.5 1013.2 -
23/07:00pm 25.0 24.8 19.4 71 3.6 SE 19 26 10 14 1013.2 1012.9 -
23/06:30pm 25.3 25.7 19.9 72 3.5 SE 17 24 9 13 1013.0 1012.7 -
23/06:00pm 25.5 25.4 19.6 70 3.8 ESE 19 28 10 15 1012.8 1012.5 -
23/05:30pm 25.7 25.5 19.8 70 3.8 ESE 20 28 11 15 1012.5 1012.2 -
23/05:00pm 26.3 26.3 20.2 69 4.0 ESE 20 28 11 15 1012.3 1012.0 -
23/04:30pm 26.3 25.6 20.2 69 4.0 ESE 24 32 13 17 1012.1 1011.8 -
23/04:00pm 26.7 25.6 20.3 68 4.2 ESE 26 33 14 18 1012.1 1011.8 -
23/03:30pm 27.1 26.5 20.6 67 4.3 ESE 24 33 13 18 1012.1 1011.8 -
23/03:00pm 27.2 26.6 20.4 66 4.5 ESE 24 33 13 18 1012.2 1011.9 -
23/02:30pm 27.2 27.7 21.2 69 4.0 E 20 32 11 17 1012.5 1012.2 -
23/02:00pm 28.0 28.4 20.9 65 4.7 SE 20 26 11 14 1012.8 1012.5 -
23/01:30pm 27.4 27.8 20.9 67 4.3 SE 20 28 11 15 1013.1 1012.8 -

Other Formats:

Comma delimited format used in spreadsheet applications
http://www.bom.gov.au/fwo/IDD60801/IDD60801.94150.axf

JavaScript Object Notation format (JSON) in row-major order
http://www.bom.gov.au/fwo/IDD60801/IDD60801.94150.json